createdAt,value
2023-05-02T00:00:13.520Z,95223.00
2023-05-02T00:01:13.576Z,95225.00
2023-05-02T00:02:13.640Z,95223.00
2023-05-02T00:03:13.812Z,95225.00
2023-05-02T00:04:13.849Z,95225.00
2023-05-02T00:05:13.768Z,95223.00
2023-05-02T00:06:13.866Z,95221.00
2023-05-02T00:07:13.886Z,95221.00
2023-05-02T00:08:13.890Z,95223.00
2023-05-02T00:09:13.977Z,95221.00
2023-05-02T00:10:14.129Z,95219.00
2023-05-02T00:11:14.060Z,95219.00
2023-05-02T00:12:14.108Z,95221.00
2023-05-02T00:13:14.165Z,95219.00
2023-05-02T00:14:14.240Z,95217.00
2023-05-02T00:15:14.302Z,95219.00
2023-05-02T00:16:14.353Z,95217.00
2023-05-02T00:17:14.464Z,95217.00
2023-05-02T00:18:14.469Z,95215.00
2023-05-02T00:19:14.413Z,95217.00
2023-05-02T00:20:14.423Z,95215.00
2023-05-02T00:21:14.434Z,95212.00
2023-05-02T00:22:14.479Z,95214.00
2023-05-02T00:23:14.524Z,95212.00
2023-05-02T00:24:14.555Z,95214.00
2023-05-02T00:25:14.555Z,95214.00
2023-05-02T00:26:14.632Z,95214.00
2023-05-02T00:27:14.647Z,95214.00
2023-05-02T00:28:14.683Z,95214.00
2023-05-02T00:29:14.803Z,95212.00
2023-05-02T00:30:14.862Z,95210.00
2023-05-02T00:31:14.945Z,95210.00
2023-05-02T00:32:14.941Z,95210.00
2023-05-02T00:33:15.201Z,95208.00
2023-05-02T00:34:15.114Z,95208.00
2023-05-02T00:35:15.119Z,95208.00
2023-05-02T00:36:15.158Z,95208.00
2023-05-02T00:37:15.208Z,95208.00
2023-05-02T00:38:15.213Z,95210.00
2023-05-02T00:39:15.237Z,95206.00
2023-05-02T00:40:15.170Z,95208.00
2023-05-02T00:41:15.209Z,95212.00
2023-05-02T00:42:15.197Z,95208.00
2023-05-02T00:43:15.211Z,95208.00
2023-05-02T00:44:15.253Z,95208.00
2023-05-02T00:45:15.258Z,95210.00
2023-05-02T00:46:15.388Z,95212.00
2023-05-02T00:47:15.336Z,95212.00
2023-05-02T00:48:15.459Z,95210.00
2023-05-02T00:49:15.444Z,95212.00
2023-05-02T00:50:15.488Z,95210.00
2023-05-02T00:51:15.557Z,95210.00
2023-05-02T00:52:15.619Z,95210.00
2023-05-02T00:53:15.693Z,95212.00
2023-05-02T00:54:15.814Z,95212.00
2023-05-02T00:55:15.795Z,95210.00
2023-05-02T00:56:15.844Z,95210.00
2023-05-02T00:57:15.902Z,95210.00
2023-05-02T00:58:15.973Z,95210.00
2023-05-02T00:59:16.081Z,95210.00
2023-05-02T01:00:16.089Z,95212.00
2023-05-02T01:01:16.170Z,95212.00
2023-05-02T01:02:16.230Z,95212.00
2023-05-02T01:03:16.283Z,95214.00
2023-05-02T01:04:16.297Z,95212.00
2023-05-02T01:05:16.209Z,95215.00
2023-05-02T01:06:16.265Z,95215.00
2023-05-02T01:07:16.319Z,95217.00
2023-05-02T01:08:16.361Z,95217.00
2023-05-02T01:09:16.387Z,95217.00
2023-05-02T01:10:16.447Z,95219.00
2023-05-02T01:11:16.509Z,95219.00
2023-05-02T01:12:16.534Z,95221.00
2023-05-02T01:13:16.766Z,95219.00
2023-05-02T01:14:16.718Z,95219.00
2023-05-02T01:15:16.707Z,95219.00
2023-05-02T01:16:16.817Z,95223.00
2023-05-02T01:17:16.822Z,95219.00
2023-05-02T01:18:16.891Z,95219.00
2023-05-02T01:19:16.929Z,95219.00
2023-05-02T01:20:16.942Z,95221.00
2023-05-02T01:21:16.972Z,95223.00
2023-05-02T01:22:16.976Z,95223.00
2023-05-02T01:23:17.070Z,95223.00
2023-05-02T01:24:17.163Z,95225.00
2023-05-02T01:25:17.196Z,95225.00
2023-05-02T01:26:17.261Z,95225.00
2023-05-02T01:27:17.301Z,95225.00
2023-05-02T01:28:17.352Z,95229.00
2023-05-02T01:29:17.455Z,95227.00
2023-05-02T01:30:17.452Z,95231.00
2023-05-02T01:31:17.491Z,95229.00
2023-05-02T01:32:17.476Z,95227.00
2023-05-02T01:33:17.462Z,95227.00
2023-05-02T01:34:17.476Z,95231.00
2023-05-02T01:35:17.481Z,95233.00
2023-05-02T01:36:17.485Z,95231.00
2023-05-02T01:37:17.506Z,95233.00
2023-05-02T01:38:17.561Z,95233.00
2023-05-02T01:39:17.575Z,95233.00
2023-05-02T01:40:17.568Z,95233.00
2023-05-02T01:41:17.586Z,95233.00
2023-05-02T01:42:17.638Z,95235.00
2023-05-02T01:43:17.699Z,95233.00
2023-05-02T01:44:17.698Z,95233.00
2023-05-02T01:45:17.759Z,95233.00
2023-05-02T01:46:17.879Z,95235.00
2023-05-02T01:47:17.914Z,95235.00
2023-05-02T01:48:17.893Z,95233.00
2023-05-02T01:49:17.880Z,95231.00
2023-05-02T01:50:17.910Z,95231.00
2023-05-02T01:51:17.905Z,95233.00
2023-05-02T01:52:17.963Z,95233.00
2023-05-02T01:53:17.974Z,95231.00
2023-05-02T01:54:18.063Z,95237.00
2023-05-02T01:55:18.007Z,95237.00
2023-05-02T01:56:18.013Z,95239.00
2023-05-02T01:57:17.994Z,95239.00
2023-05-02T01:58:17.983Z,95237.00
2023-05-02T01:59:17.960Z,95239.00
2023-05-02T02:00:17.964Z,95241.00
2023-05-02T02:01:17.996Z,95237.00
2023-05-02T02:02:17.965Z,95237.00
2023-05-02T02:03:18.056Z,95241.00
2023-05-02T02:04:18.171Z,95237.00
2023-05-02T02:05:17.961Z,95237.00
2023-05-02T02:06:18.001Z,95237.00
2023-05-02T02:07:17.995Z,95241.00
2023-05-02T02:08:18.022Z,95243.00
2023-05-02T02:09:18.026Z,95241.00
2023-05-02T02:10:18.047Z,95241.00
2023-05-02T02:11:17.989Z,95239.00
2023-05-02T02:12:17.990Z,95241.00
2023-05-02T02:13:18.020Z,95239.00
2023-05-02T02:14:18.004Z,95241.00
2023-05-02T02:15:18.323Z,95237.00
2023-05-02T02:16:18.046Z,95237.00
2023-05-02T02:17:17.995Z,95237.00
2023-05-02T02:18:17.983Z,95237.00
2023-05-02T02:19:17.986Z,95239.00
2023-05-02T02:20:17.997Z,95239.00
2023-05-02T02:21:18.015Z,95241.00
2023-05-02T02:22:18.001Z,95241.00
2023-05-02T02:23:18.006Z,95241.00
2023-05-02T02:24:18.007Z,95239.00
2023-05-02T02:25:18.033Z,95243.00
2023-05-02T02:26:18.046Z,95241.00
2023-05-02T02:27:18.039Z,95241.00
2023-05-02T02:28:18.050Z,95245.00
2023-05-02T02:29:18.100Z,95243.00
2023-05-02T02:30:18.074Z,95245.00
2023-05-02T02:31:18.105Z,95243.00
2023-05-02T02:32:18.128Z,95245.00
2023-05-02T02:33:18.083Z,95243.00
2023-05-02T02:34:18.186Z,95243.00
2023-05-02T02:35:18.154Z,95243.00
2023-05-02T02:36:18.196Z,95245.00
2023-05-02T02:37:18.225Z,95245.00
2023-05-02T02:38:18.196Z,95243.00
2023-05-02T02:39:18.194Z,95247.00
2023-05-02T02:40:18.174Z,95247.00
2023-05-02T02:41:18.218Z,95245.00
2023-05-02T02:42:18.211Z,95247.00
2023-05-02T02:43:18.153Z,95249.00
2023-05-02T02:44:18.243Z,95249.00
2023-05-02T02:45:18.198Z,95249.00
2023-05-02T02:46:18.214Z,95251.00
2023-05-02T02:47:18.203Z,95253.00
2023-05-02T02:48:18.295Z,95253.00
2023-05-02T02:49:18.225Z,95251.00
2023-05-02T02:50:18.213Z,95253.00
2023-05-02T02:51:18.287Z,95253.00
2023-05-02T02:52:18.260Z,95253.00
2023-05-02T02:53:18.232Z,95253.00
2023-05-02T02:54:26.454Z,95255.00
2023-05-02T02:55:19.262Z,95255.00
2023-05-02T02:56:18.236Z,95253.00
2023-05-02T02:57:18.278Z,95255.00
2023-05-02T02:58:18.239Z,95253.00
2023-05-02T02:59:18.226Z,95255.00
2023-05-02T03:00:18.212Z,95255.00
2023-05-02T03:01:18.267Z,95257.00
2023-05-02T03:02:18.178Z,95259.00
2023-05-02T03:03:18.270Z,95259.00
2023-05-02T03:04:18.255Z,95257.00
2023-05-02T03:05:18.202Z,95255.00
2023-05-02T03:06:18.186Z,95259.00
2023-05-02T03:07:18.158Z,95257.00
2023-05-02T03:08:18.189Z,95259.00
2023-05-02T03:09:18.167Z,95257.00
2023-05-02T03:10:18.128Z,95259.00
2023-05-02T03:11:18.129Z,95259.00
2023-05-02T03:12:18.136Z,95257.00
2023-05-02T03:13:18.114Z,95257.00
2023-05-02T03:14:18.125Z,95259.00
2023-05-02T03:15:18.164Z,95259.00
2023-05-02T03:16:18.241Z,95261.00
2023-05-02T03:17:18.189Z,95259.00
2023-05-02T03:18:18.298Z,95261.00
2023-05-02T03:19:18.265Z,95259.00
2023-05-02T03:20:18.271Z,95261.00
2023-05-02T03:21:18.259Z,95259.00
2023-05-02T03:22:18.268Z,95259.00
2023-05-02T03:23:18.289Z,95261.00
2023-05-02T03:24:19.198Z,95263.00
2023-05-02T03:25:18.291Z,95263.00
2023-05-02T03:26:18.340Z,95261.00
2023-05-02T03:27:18.364Z,95263.00
2023-05-02T03:28:18.356Z,95263.00
2023-05-02T03:29:18.419Z,95265.00
2023-05-02T03:30:18.381Z,95265.00
2023-05-02T03:31:18.455Z,95265.00
2023-05-02T03:32:18.448Z,95265.00
2023-05-02T03:33:18.443Z,95267.00
2023-05-02T03:34:18.452Z,95265.00
2023-05-02T03:35:18.519Z,95269.00
2023-05-02T03:36:18.496Z,95267.00
2023-05-02T03:37:18.518Z,95272.00
2023-05-02T03:38:18.516Z,95270.00
2023-05-02T03:39:18.546Z,95270.00
2023-05-02T03:40:18.532Z,95274.00
2023-05-02T03:41:18.599Z,95276.00
2023-05-02T03:42:18.588Z,95276.00
2023-05-02T03:43:18.626Z,95278.00
2023-05-02T03:44:18.653Z,95278.00
2023-05-02T03:45:18.714Z,95278.00
2023-05-02T03:46:18.689Z,95278.00
2023-05-02T03:47:18.686Z,95282.00
2023-05-02T03:48:18.764Z,95280.00
2023-05-02T03:49:18.802Z,95278.00
2023-05-02T03:50:18.751Z,95280.00
2023-05-02T03:51:18.815Z,95282.00
2023-05-02T03:52:18.861Z,95288.00
2023-05-02T03:53:18.924Z,95284.00
2023-05-02T03:54:18.932Z,95288.00
2023-05-02T03:55:18.952Z,95286.00
2023-05-02T03:56:19.031Z,95282.00
2023-05-02T03:57:19.063Z,95288.00
2023-05-02T03:58:19.035Z,95288.00
2023-05-02T03:59:19.151Z,95284.00
2023-05-02T04:00:19.125Z,95288.00
2023-05-02T04:01:19.172Z,95286.00
2023-05-02T04:02:19.269Z,95288.00
2023-05-02T04:03:19.669Z,95290.00
2023-05-02T04:04:19.431Z,95288.00
2023-05-02T04:05:19.324Z,95290.00
2023-05-02T04:06:19.446Z,95290.00
2023-05-02T04:07:19.615Z,95292.00
2023-05-02T04:08:19.470Z,95294.00
2023-05-02T04:09:19.492Z,95296.00
2023-05-02T04:10:19.547Z,95300.00
2023-05-02T04:11:19.643Z,95300.00
2023-05-02T04:12:19.631Z,95298.00
2023-05-02T04:13:19.672Z,95296.00
2023-05-02T04:14:19.726Z,95298.00
2023-05-02T04:15:19.822Z,95298.00
2023-05-02T04:16:19.895Z,95302.00
2023-05-02T04:17:19.863Z,95300.00
2023-05-02T04:18:19.869Z,95300.00
2023-05-02T04:19:19.937Z,95306.00
2023-05-02T04:20:19.964Z,95308.00
2023-05-02T04:21:19.985Z,95308.00
2023-05-02T04:22:20.014Z,95306.00
2023-05-02T04:23:20.069Z,95308.00
2023-05-02T04:24:20.128Z,95306.00
2023-05-02T04:25:20.118Z,95308.00
2023-05-02T04:26:20.228Z,95308.00
2023-05-02T04:27:20.177Z,95308.00
2023-05-02T04:28:20.242Z,95309.00
2023-05-02T04:29:20.292Z,95311.00
2023-05-02T04:30:20.364Z,95313.00
2023-05-02T04:31:20.537Z,95315.00
2023-05-02T04:32:20.418Z,95317.00
2023-05-02T04:33:20.486Z,95317.00
2023-05-02T04:34:20.475Z,95319.00
2023-05-02T04:35:20.555Z,95321.00
2023-05-02T04:36:20.577Z,95321.00
2023-05-02T04:37:21.193Z,95321.00
2023-05-02T04:38:20.636Z,95319.00
2023-05-02T04:39:20.658Z,95325.00
2023-05-02T04:40:20.708Z,95327.00
2023-05-02T04:41:20.719Z,95329.00
2023-05-02T04:42:20.778Z,95329.00
2023-05-02T04:43:21.830Z,95333.00
2023-05-02T04:44:20.824Z,95329.00
2023-05-02T04:45:20.848Z,95337.00
2023-05-02T04:46:21.150Z,95335.00
2023-05-02T04:47:20.815Z,95337.00
2023-05-02T04:48:20.761Z,95337.00
2023-05-02T04:49:20.787Z,95337.00
2023-05-02T04:50:20.804Z,95341.00
2023-05-02T04:51:20.771Z,95339.00
2023-05-02T04:52:20.778Z,95337.00
2023-05-02T04:53:20.739Z,95339.00
2023-05-02T04:54:20.926Z,95343.00
2023-05-02T04:55:20.838Z,95339.00
2023-05-02T04:56:20.737Z,95339.00
2023-05-02T04:57:22.612Z,95339.00
2023-05-02T04:58:20.869Z,95343.00
2023-05-02T04:59:20.821Z,95345.00
2023-05-02T05:01:47.934Z,95351.00
2023-05-02T05:02:40.393Z,95347.00
2023-05-02T05:03:40.417Z,95351.00
2023-05-02T05:04:40.281Z,95347.00
2023-05-02T05:05:40.350Z,95353.00
2023-05-02T05:06:40.295Z,95355.00
2023-05-02T05:07:40.263Z,95355.00
2023-05-02T05:08:40.206Z,95356.00
2023-05-02T05:09:40.282Z,95356.00
2023-05-02T05:10:40.191Z,95358.00
2023-05-02T05:11:40.534Z,95361.00
2023-05-02T05:12:40.222Z,95356.00
2023-05-02T05:13:40.202Z,95363.00
2023-05-02T05:14:40.283Z,95363.00
2023-05-02T05:15:40.198Z,95363.00
2023-05-02T05:16:40.604Z,95366.00
2023-05-02T05:17:40.624Z,95364.00
2023-05-02T05:18:40.273Z,95366.00
2023-05-02T05:19:40.244Z,95370.00
2023-05-02T05:20:40.140Z,95370.00
2023-05-02T05:21:40.160Z,95370.00
2023-05-02T05:22:40.158Z,95368.00
2023-05-02T05:23:40.347Z,95370.00
2023-05-02T05:24:40.169Z,95370.00
2023-05-02T05:25:40.149Z,95372.00
2023-05-02T05:26:40.123Z,95370.00
2023-05-02T05:27:40.112Z,95374.00
2023-05-02T05:28:40.165Z,95374.00
2023-05-02T05:29:40.172Z,95374.00
2023-05-02T05:30:40.475Z,95376.00
2023-05-02T05:31:40.441Z,95378.00
2023-05-02T05:32:40.080Z,95378.00
2023-05-02T05:33:40.155Z,95380.00
2023-05-02T05:34:40.072Z,95380.00
2023-05-02T05:35:40.167Z,95380.00
2023-05-02T05:36:40.206Z,95382.00
2023-05-02T05:37:40.294Z,95382.00
2023-05-02T05:38:40.264Z,95382.00
2023-05-02T05:39:40.534Z,95384.00
2023-05-02T05:40:40.387Z,95386.00
2023-05-02T05:41:40.328Z,95386.00
2023-05-02T05:42:40.419Z,95388.00
2023-05-02T05:43:40.410Z,95388.00
2023-05-02T05:44:40.581Z,95392.00
2023-05-02T05:45:40.524Z,95392.00
2023-05-02T05:48:00.428Z,95400.00
2023-05-02T05:49:00.205Z,95400.00
2023-05-02T05:50:00.463Z,95398.00
2023-05-02T05:51:00.172Z,95400.00
2023-05-02T05:52:00.261Z,95402.00
2023-05-02T05:53:00.164Z,95402.00
2023-05-02T05:54:00.213Z,95403.00
2023-05-02T05:55:00.155Z,95403.00
2023-05-02T05:56:00.118Z,95403.00
2023-05-02T05:57:00.137Z,95407.00
2023-05-02T05:58:00.183Z,95405.00
2023-05-02T05:59:00.099Z,95407.00
2023-05-02T06:00:01.943Z,95407.00
2023-05-02T06:01:00.109Z,95407.00
2023-05-02T06:02:00.298Z,95409.00
2023-05-02T06:03:00.305Z,95409.00
2023-05-02T06:04:00.246Z,95409.00
2023-05-02T06:05:00.332Z,95407.00
2023-05-02T06:06:00.443Z,95411.00
2023-05-02T06:07:00.338Z,95407.00
2023-05-02T06:08:00.349Z,95413.00
2023-05-02T06:09:00.409Z,95413.00
2023-05-02T06:10:00.699Z,95411.00
2023-05-02T06:11:00.556Z,95413.00
2023-05-02T06:12:00.493Z,95415.00
2023-05-02T06:13:00.538Z,95425.00
2023-05-02T06:14:00.584Z,95427.00
2023-05-02T06:15:00.736Z,95429.00
2023-05-02T06:16:00.696Z,95429.00
2023-05-02T06:17:00.756Z,95431.00
2023-05-02T06:18:00.849Z,95433.00
2023-05-02T06:19:00.778Z,95435.00
2023-05-02T06:20:01.673Z,95433.00
2023-05-02T06:21:00.865Z,95437.00
2023-05-02T06:22:01.805Z,95437.00
2023-05-02T06:23:00.976Z,95437.00
2023-05-02T06:24:00.944Z,95439.00
2023-05-02T06:25:01.010Z,95441.00
2023-05-02T06:26:01.012Z,95441.00
2023-05-02T06:27:01.108Z,95443.00
2023-05-02T06:28:01.113Z,95441.00
2023-05-02T06:29:01.120Z,95441.00
2023-05-02T06:30:01.449Z,95445.00
2023-05-02T06:31:01.387Z,95443.00
2023-05-02T06:32:01.350Z,95445.00
2023-05-02T06:33:01.334Z,95449.00
2023-05-02T06:34:01.374Z,95445.00
2023-05-02T06:35:01.407Z,95449.00
2023-05-02T06:36:02.486Z,95447.00
2023-05-02T06:37:01.498Z,95447.00
2023-05-02T06:38:01.483Z,95449.00
2023-05-02T06:39:02.127Z,95455.00
2023-05-02T06:40:01.862Z,95453.00
2023-05-02T06:41:01.527Z,95451.00
2023-05-02T06:42:01.637Z,95456.00
2023-05-02T06:43:01.595Z,95455.00
2023-05-02T06:44:01.662Z,95455.00
2023-05-02T06:45:01.844Z,95458.00
2023-05-02T06:46:01.675Z,95460.00
2023-05-02T06:47:01.890Z,95458.00
2023-05-02T06:48:01.781Z,95458.00
2023-05-02T06:49:01.967Z,95460.00
2023-05-02T06:50:02.181Z,95458.00
2023-05-02T06:51:01.915Z,95460.00
2023-05-02T06:52:01.941Z,95462.00
2023-05-02T06:53:02.015Z,95462.00
2023-05-02T06:54:02.008Z,95464.00
2023-05-02T06:55:02.335Z,95464.00
2023-05-02T06:56:02.016Z,95466.00
2023-05-02T06:57:02.190Z,95466.00
2023-05-02T06:58:02.217Z,95470.00
2023-05-02T06:59:02.135Z,95470.00
2023-05-02T07:00:02.375Z,95468.00
2023-05-02T07:01:02.190Z,95472.00
2023-05-02T07:02:05.066Z,95470.00
2023-05-02T07:03:02.211Z,95470.00
2023-05-02T07:04:02.261Z,95472.00
2023-05-02T07:05:02.082Z,95476.00
2023-05-02T07:06:03.670Z,95474.00
2023-05-02T07:07:02.124Z,95474.00
2023-05-02T07:08:02.126Z,95474.00
2023-05-02T07:09:02.076Z,95474.00
2023-05-02T07:10:02.514Z,95476.00
2023-05-02T07:11:02.121Z,95474.00
2023-05-02T07:12:06.611Z,95474.00
2023-05-02T07:13:04.787Z,95474.00
2023-05-02T07:14:02.051Z,95474.00
2023-05-02T07:15:02.358Z,95476.00
2023-05-02T07:16:02.070Z,95478.00
2023-05-02T07:17:02.192Z,95480.00
2023-05-02T07:18:02.188Z,95480.00
2023-05-02T07:19:02.094Z,95476.00
2023-05-02T07:20:02.596Z,95478.00
2023-05-02T07:21:02.006Z,95476.00
2023-05-02T07:22:02.006Z,95482.00
2023-05-02T07:23:02.136Z,95480.00
2023-05-02T07:24:02.027Z,95484.00
2023-05-02T07:25:02.317Z,95482.00
2023-05-02T07:26:03.196Z,95482.00
2023-05-02T07:27:02.016Z,95484.00
2023-05-02T07:28:02.033Z,95480.00
2023-05-02T07:29:02.815Z,95480.00
2023-05-02T07:30:02.531Z,95484.00
2023-05-02T07:31:01.981Z,95484.00
2023-05-02T07:32:02.067Z,95482.00
2023-05-02T07:33:01.983Z,95488.00
2023-05-02T07:34:01.998Z,95488.00
2023-05-02T07:35:02.009Z,95486.00
2023-05-02T07:36:02.406Z,95488.00
2023-05-02T07:37:01.906Z,95490.00
2023-05-02T07:38:02.030Z,95492.00
2023-05-02T07:39:02.024Z,95492.00
2023-05-02T07:40:02.513Z,95492.00
2023-05-02T07:41:02.333Z,95492.00
2023-05-02T07:42:02.153Z,95492.00
2023-05-02T07:43:02.152Z,95492.00
2023-05-02T07:44:02.137Z,95490.00
2023-05-02T07:45:02.167Z,95488.00
2023-05-02T07:46:02.281Z,95486.00
2023-05-02T07:47:02.171Z,95488.00
2023-05-02T07:48:02.333Z,95488.00
2023-05-02T07:49:02.261Z,95488.00
2023-05-02T07:50:02.576Z,95490.00
2023-05-02T07:51:02.301Z,95490.00
2023-05-02T07:52:02.214Z,95494.00
2023-05-02T07:53:02.212Z,95492.00
2023-05-02T07:54:02.219Z,95492.00
2023-05-02T07:55:02.181Z,95492.00
2023-05-02T07:56:02.327Z,95494.00
2023-05-02T07:57:02.346Z,95494.00
2023-05-02T07:58:02.209Z,95494.00
2023-05-02T07:59:03.652Z,95494.00
2023-05-02T08:00:02.823Z,95494.00
2023-05-02T08:01:02.204Z,95492.00
2023-05-02T08:02:02.194Z,95500.00
2023-05-02T08:03:02.275Z,95496.00
2023-05-02T08:04:02.483Z,95500.00
2023-05-02T08:05:02.238Z,95500.00
2023-05-02T08:06:02.344Z,95503.00
2023-05-02T08:07:02.159Z,95507.00
2023-05-02T08:08:02.277Z,95507.00
2023-05-02T08:09:02.137Z,95507.00
2023-05-02T08:10:02.456Z,95507.00
2023-05-02T08:11:02.277Z,95505.00
2023-05-02T08:12:02.160Z,95507.00
2023-05-02T08:13:02.175Z,95509.00
2023-05-02T08:14:02.108Z,95507.00
2023-05-02T08:15:02.069Z,95507.00
2023-05-02T08:16:02.863Z,95511.00
2023-05-02T08:17:02.801Z,95513.00
2023-05-02T08:18:02.125Z,95511.00
2023-05-02T08:19:02.089Z,95509.00
2023-05-02T08:20:02.370Z,95513.00
2023-05-02T08:21:02.279Z,95519.00
2023-05-02T08:22:02.114Z,95519.00
2023-05-02T08:23:02.084Z,95517.00
2023-05-02T08:24:02.572Z,95519.00
2023-05-02T08:25:01.996Z,95521.00
2023-05-02T08:26:02.060Z,95517.00
2023-05-02T08:27:02.001Z,95519.00
2023-05-02T08:28:02.038Z,95515.00
2023-05-02T08:29:01.979Z,95519.00
2023-05-02T08:30:02.046Z,95517.00
2023-05-02T08:31:01.975Z,95519.00
2023-05-02T08:32:02.024Z,95517.00
2023-05-02T08:33:02.134Z,95519.00
2023-05-02T08:34:02.006Z,95515.00
2023-05-02T08:35:02.023Z,95517.00
2023-05-02T08:36:02.429Z,95519.00
2023-05-02T08:37:02.016Z,95521.00
2023-05-02T08:38:01.945Z,95521.00
2023-05-02T08:39:02.747Z,95521.00
2023-05-02T08:40:02.502Z,95519.00
2023-05-02T08:41:02.302Z,95519.00
2023-05-02T08:42:01.946Z,95521.00
2023-05-02T08:43:01.938Z,95521.00
2023-05-02T08:44:01.982Z,95523.00
2023-05-02T08:45:02.062Z,95525.00
2023-05-02T08:46:03.816Z,95527.00
2023-05-02T08:47:02.152Z,95531.00
2023-05-02T08:48:02.137Z,95529.00
2023-05-02T08:49:02.127Z,95533.00
2023-05-02T08:50:02.667Z,95531.00
2023-05-02T08:51:02.319Z,95537.00
2023-05-02T08:52:02.339Z,95539.00
2023-05-02T08:53:02.361Z,95539.00
2023-05-02T08:54:02.431Z,95539.00
2023-05-02T08:55:02.749Z,95537.00
2023-05-02T08:56:02.816Z,95537.00
2023-05-02T08:57:02.512Z,95537.00
2023-05-02T08:58:02.515Z,95539.00
2023-05-02T08:59:02.533Z,95539.00
2023-05-02T09:00:02.573Z,95539.00
2023-05-02T09:01:02.589Z,95537.00
2023-05-02T09:02:02.590Z,95539.00
2023-05-02T09:03:02.619Z,95541.00
2023-05-02T09:04:02.620Z,95543.00
2023-05-02T09:05:02.786Z,95543.00
2023-05-02T09:06:02.703Z,95547.00
2023-05-02T09:07:02.580Z,95545.00
2023-05-02T09:08:03.169Z,95545.00
2023-05-02T09:09:02.591Z,95547.00
2023-05-02T09:10:02.650Z,95547.00
2023-05-02T09:11:02.651Z,95545.00
2023-05-02T09:12:02.677Z,95545.00
2023-05-02T09:13:02.696Z,95545.00
2023-05-02T09:14:02.729Z,95545.00
2023-05-02T09:15:02.746Z,95543.00
2023-05-02T09:16:03.060Z,95545.00
2023-05-02T09:17:02.866Z,95545.00
2023-05-02T09:18:02.844Z,95545.00
2023-05-02T09:19:02.827Z,95549.00
2023-05-02T09:20:02.930Z,95547.00
2023-05-02T09:21:03.338Z,95547.00
2023-05-02T09:22:02.812Z,95547.00
2023-05-02T09:23:02.835Z,95550.00
2023-05-02T09:24:03.869Z,95550.00
2023-05-02T09:25:02.902Z,95550.00
2023-05-02T09:26:03.298Z,95552.00
2023-05-02T09:27:03.222Z,95550.00
2023-05-02T09:28:02.942Z,95549.00
2023-05-02T09:29:02.943Z,95550.00
2023-05-02T09:30:03.072Z,95552.00
2023-05-02T09:31:04.824Z,95549.00
2023-05-02T09:32:03.094Z,95549.00
2023-05-02T09:33:03.037Z,95550.00
2023-05-02T09:34:03.102Z,95552.00
2023-05-02T09:35:03.016Z,95549.00
2023-05-02T09:36:06.934Z,95549.00
2023-05-02T09:37:03.087Z,95550.00
2023-05-02T09:38:03.201Z,95550.00
2023-05-02T09:39:02.947Z,95550.00
2023-05-02T09:40:03.067Z,95547.00
2023-05-02T09:41:03.309Z,95549.00
2023-05-02T09:42:03.327Z,95549.00
2023-05-02T09:43:02.969Z,95550.00
2023-05-02T09:44:02.990Z,95550.00
2023-05-02T09:45:02.964Z,95550.00
2023-05-02T09:46:03.071Z,95554.00
2023-05-02T09:47:03.817Z,95552.00
2023-05-02T09:48:03.092Z,95552.00
2023-05-02T09:49:02.922Z,95549.00
2023-05-02T09:50:02.921Z,95549.00
2023-05-02T09:51:02.891Z,95547.00
2023-05-02T09:52:02.939Z,95549.00
2023-05-02T09:53:02.905Z,95547.00
2023-05-02T09:54:02.906Z,95547.00
2023-05-02T09:55:02.935Z,95550.00
2023-05-02T09:56:02.921Z,95550.00
2023-05-02T09:57:02.865Z,95550.00
2023-05-02T09:58:02.872Z,95549.00
2023-05-02T09:59:02.839Z,95549.00
2023-05-02T10:00:02.909Z,95550.00
2023-05-02T10:01:02.911Z,95550.00
2023-05-02T10:02:03.153Z,95549.00
2023-05-02T10:03:02.810Z,95549.00
2023-05-02T10:04:02.846Z,95549.00
2023-05-02T10:05:03.839Z,95547.00
2023-05-02T10:06:02.812Z,95549.00
2023-05-02T10:07:02.831Z,95547.00
2023-05-02T10:08:02.760Z,95549.00
2023-05-02T10:09:02.844Z,95547.00
2023-05-02T10:10:03.680Z,95550.00
2023-05-02T10:11:02.765Z,95550.00
2023-05-02T10:12:02.816Z,95552.00
2023-05-02T10:13:02.828Z,95550.00
2023-05-02T10:14:02.910Z,95554.00
2023-05-02T10:15:03.115Z,95550.00
2023-05-02T10:16:03.103Z,95554.00
2023-05-02T10:17:03.007Z,95556.00
2023-05-02T10:18:03.127Z,95550.00
2023-05-02T10:19:03.155Z,95550.00
2023-05-02T10:20:03.158Z,95550.00
2023-05-02T10:21:03.194Z,95547.00
2023-05-02T10:22:03.858Z,95547.00
2023-05-02T10:23:03.361Z,95547.00
2023-05-02T10:24:03.332Z,95547.00
2023-05-02T10:25:03.662Z,95547.00
2023-05-02T10:26:03.469Z,95547.00
2023-05-02T10:27:03.891Z,95543.00
2023-05-02T10:28:03.406Z,95545.00
2023-05-02T10:29:03.379Z,95545.00
2023-05-02T10:30:03.405Z,95545.00
2023-05-02T10:31:03.453Z,95539.00
2023-05-02T10:32:04.537Z,95535.00
2023-05-02T10:33:03.477Z,95533.00
2023-05-02T10:34:03.447Z,95531.00
2023-05-02T10:35:03.687Z,95529.00
2023-05-02T10:36:03.543Z,95531.00
2023-05-02T10:37:03.852Z,95531.00
2023-05-02T10:38:03.688Z,95531.00
2023-05-02T10:39:03.607Z,95529.00
2023-05-02T10:40:03.631Z,95527.00
2023-05-02T10:41:03.686Z,95527.00
2023-05-02T10:42:03.835Z,95527.00
2023-05-02T10:43:03.694Z,95527.00
2023-05-02T10:44:03.691Z,95525.00
2023-05-02T10:45:03.707Z,95523.00
2023-05-02T10:46:04.486Z,95525.00
2023-05-02T10:47:04.022Z,95525.00
2023-05-02T10:48:04.026Z,95525.00
2023-05-02T10:49:03.921Z,95523.00
2023-05-02T10:50:04.036Z,95521.00
2023-05-02T10:51:03.962Z,95519.00
2023-05-02T10:52:04.383Z,95519.00
2023-05-02T10:53:04.074Z,95519.00
2023-05-02T10:54:04.076Z,95519.00
2023-05-02T10:55:04.080Z,95519.00
2023-05-02T10:56:04.172Z,95519.00
2023-05-02T10:57:04.233Z,95515.00
2023-05-02T10:58:04.297Z,95517.00
2023-05-02T10:59:04.210Z,95513.00
2023-05-02T11:00:04.214Z,95511.00
2023-05-02T11:01:04.377Z,95511.00
2023-05-02T11:02:06.992Z,95513.00
2023-05-02T11:03:04.449Z,95515.00
2023-05-02T11:04:04.336Z,95511.00
2023-05-02T11:05:04.764Z,95509.00
2023-05-02T11:06:04.317Z,95513.00
2023-05-02T11:07:04.278Z,95509.00
2023-05-02T11:08:04.264Z,95509.00
2023-05-02T11:09:04.307Z,95507.00
2023-05-02T11:10:04.312Z,95507.00
2023-05-02T11:11:04.188Z,95511.00
2023-05-02T11:12:04.408Z,95511.00
2023-05-02T11:13:04.198Z,95511.00
2023-05-02T11:14:04.220Z,95511.00
2023-05-02T11:15:04.212Z,95505.00
2023-05-02T11:16:04.228Z,95505.00
2023-05-02T11:17:04.424Z,95507.00
2023-05-02T11:18:04.277Z,95505.00
2023-05-02T11:19:04.232Z,95507.00
2023-05-02T11:20:04.256Z,95507.00
2023-05-02T11:21:04.256Z,95507.00
2023-05-02T11:22:04.278Z,95505.00
2023-05-02T11:23:04.162Z,95505.00
2023-05-02T11:24:04.185Z,95507.00
2023-05-02T11:25:04.190Z,95505.00
2023-05-02T11:26:05.219Z,95503.00
2023-05-02T11:27:04.093Z,95505.00
2023-05-02T11:28:04.145Z,95505.00
2023-05-02T11:29:04.271Z,95503.00
2023-05-02T11:30:04.120Z,95502.00
2023-05-02T11:31:04.133Z,95507.00
2023-05-02T11:32:04.557Z,95503.00
2023-05-02T11:33:04.225Z,95507.00
2023-05-02T11:34:04.032Z,95503.00
2023-05-02T11:35:04.246Z,95502.00
2023-05-02T11:36:04.046Z,95503.00
2023-05-02T11:37:04.382Z,95503.00
2023-05-02T11:38:04.088Z,95502.00
2023-05-02T11:39:04.058Z,95505.00
2023-05-02T11:40:04.097Z,95507.00
2023-05-02T11:41:04.104Z,95509.00
2023-05-02T11:42:04.004Z,95505.00
2023-05-02T11:43:04.036Z,95505.00
2023-05-02T11:44:04.015Z,95507.00
2023-05-02T11:45:04.223Z,95505.00
2023-05-02T11:46:04.047Z,95503.00
2023-05-02T11:47:04.041Z,95502.00